WSAP/QPG METAR and TAF weather

Enter ICAO airport designator
Station Type Date Time Source
WSAP METAR 2021/06/24 06:00 UTC NOAA

WSAP 240600Z 23006KT 9999 FEW018TCU BKN300 31/24 Q1009


Station Type Date Time Source
WSAP Decoded METAR 2021/06/24 06:00 UTC NOAA

Singapore / Paya Lebar, Singapore (WSAP) 01-22N 103-55E 32M
Jun 24, 2021 - 02:00 AM EDT / 2021.06.24 0600 UTC
Wind: from the SW (230 degrees) at 7 MPH (6 KT):0
Visibility: greater than 7 mile(s):0
Sky conditions: mostly cloudy
Weather: Towering cumulus clouds observed
Temperature: 87 F (31 C)
Heat index: 95.7 F (35.4 C):1
Dew Point: 75 F (24 C)
Relative Humidity: 66%
Pressure (altimeter): 29.80 in. Hg (1009 hPa)
ob: WSAP 240600Z 23006KT 9999 FEW018TCU BKN300 31/24 Q1009
cycle: 6

Station Type Date Time Source
WSAP TAF 2021/06/24 06:09 UTC NOAA

TAF WSAP 240500Z 2406/2512 21007KT 9999 FEW015CB SCT020
TEMPO 2502/2505 3000 TSRA FEW012CB BKN015

Example: see airport list